sensor_id;sensor_type;location;lat;lon;timestamp;pressure;altitude;pressure_sealevel;temperature;humidity
59194;BME280;44967;48.598;15.650;2023-05-25T00:02:07;98713.09;;;13.47;65.91
59194;BME280;44967;48.598;15.650;2023-05-25T00:04:33;98712.38;;;13.42;66.61
59194;BME280;44967;48.598;15.650;2023-05-25T00:07:00;98717.81;;;13.39;66.99
59194;BME280;44967;48.598;15.650;2023-05-25T00:09:26;98710.91;;;13.33;67.14
59194;BME280;44967;48.598;15.650;2023-05-25T00:11:51;98705.75;;;13.29;67.19
59194;BME280;44967;48.598;15.650;2023-05-25T00:14:18;98707.25;;;13.36;66.85
59194;BME280;44967;48.598;15.650;2023-05-25T00:16:43;98703.06;;;13.30;67.65
59194;BME280;44967;48.598;15.650;2023-05-25T00:19:12;98705.00;;;13.25;66.88
59194;BME280;44967;48.598;15.650;2023-05-25T00:21:38;98709.94;;;13.09;65.45
59194;BME280;44967;48.598;15.650;2023-05-25T00:24:05;98712.19;;;13.21;65.94
59194;BME280;44967;48.598;15.650;2023-05-25T00:26:30;98720.00;;;13.26;65.25
59194;BME280;44967;48.598;15.650;2023-05-25T00:28:56;98721.78;;;13.26;65.92
59194;BME280;44967;48.598;15.650;2023-05-25T00:31:24;98723.72;;;13.20;65.45
59194;BME280;44967;48.598;15.650;2023-05-25T00:33:51;98721.41;;;13.11;65.74
59194;BME280;44967;48.598;15.650;2023-05-25T00:36:16;98716.56;;;12.96;66.37
59194;BME280;44967;48.598;15.650;2023-05-25T00:38:42;98716.03;;;12.85;66.27
59194;BME280;44967;48.598;15.650;2023-05-25T00:41:07;98714.31;;;12.84;66.74
59194;BME280;44967;48.598;15.650;2023-05-25T00:43:33;98714.53;;;12.78;66.06
59194;BME280;44967;48.598;15.650;2023-05-25T00:46:00;98709.44;;;12.72;66.42
59194;BME280;44967;48.598;15.650;2023-05-25T00:48:26;98713.78;;;12.73;66.88
59194;BME280;44967;48.598;15.650;2023-05-25T00:50:55;98717.72;;;12.61;67.20
59194;BME280;44967;48.598;15.650;2023-05-25T00:53:24;98711.91;;;12.49;67.71
59194;BME280;44967;48.598;15.650;2023-05-25T00:56:01;98717.91;;;12.27;67.40
59194;BME280;44967;48.598;15.650;2023-05-25T00:58:32;98719.16;;;12.16;67.88
59194;BME280;44967;48.598;15.650;2023-05-25T01:00:59;98712.22;;;12.10;68.00
59194;BME280;44967;48.598;15.650;2023-05-25T01:03:30;98712.34;;;12.07;68.69
59194;BME280;44967;48.598;15.650;2023-05-25T01:05:55;98719.41;;;12.07;68.05
59194;BME280;44967;48.598;15.650;2023-05-25T01:08:23;98715.34;;;11.95;68.75
59194;BME280;44967;48.598;15.650;2023-05-25T01:10:51;98714.34;;;11.99;67.86
59194;BME280;44967;48.598;15.650;2023-05-25T01:13:18;98711.63;;;11.71;69.01
59194;BME280;44967;48.598;15.650;2023-05-25T01:15:46;98713.59;;;11.62;69.81
59194;BME280;44967;48.598;15.650;2023-05-25T01:18:15;98718.06;;;11.61;69.62
59194;BME280;44967;48.598;15.650;2023-05-25T01:20:52;98724.03;;;11.68;69.06
59194;BME280;44967;48.598;15.650;2023-05-25T01:23:25;98718.19;;;11.57;69.82
59194;BME280;44967;48.598;15.650;2023-05-25T01:25:54;98718.44;;;11.48;70.73
59194;BME280;44967;48.598;15.650;2023-05-25T01:28:28;98713.38;;;11.39;71.57
59194;BME280;44967;48.598;15.650;2023-05-25T01:30:56;98711.81;;;11.31;71.06
59194;BME280;44967;48.598;15.650;2023-05-25T01:33:22;98717.31;;;11.24;71.27
59194;BME280;44967;48.598;15.650;2023-05-25T01:35:48;98720.91;;;11.21;70.67
59194;BME280;44967;48.598;15.650;2023-05-25T01:38:16;98710.34;;;11.20;70.99
59194;BME280;44967;48.598;15.650;2023-05-25T01:40:42;98713.34;;;11.06;71.09
59194;BME280;44967;48.598;15.650;2023-05-25T01:43:08;98711.03;;;10.94;71.41
59194;BME280;44967;48.598;15.650;2023-05-25T01:45:34;98713.72;;;10.93;71.41
59194;BME280;44967;48.598;15.650;2023-05-25T01:51:00;98711.63;;;11.05;71.23
59194;BME280;44967;48.598;15.650;2023-05-25T01:53:41;98713.13;;;10.80;71.46
59194;BME280;44967;48.598;15.650;2023-05-25T01:56:09;98710.41;;;10.83;72.18
59194;BME280;44967;48.598;15.650;2023-05-25T01:58:41;98708.69;;;10.82;71.99
59194;BME280;44967;48.598;15.650;2023-05-25T02:01:07;98700.09;;;10.74;71.41
59194;BME280;44967;48.598;15.650;2023-05-25T02:03:34;98710.59;;;10.75;71.69
59194;BME280;44967;48.598;15.650;2023-05-25T02:06:00;98707.56;;;10.57;71.59
59194;BME280;44967;48.598;15.650;2023-05-25T02:08:26;98715.38;;;10.61;72.44
59194;BME280;44967;48.598;15.650;2023-05-25T02:10:51;98710.34;;;10.51;72.23
59194;BME280;44967;48.598;15.650;2023-05-25T02:13:17;98710.47;;;10.45;72.88
59194;BME280;44967;48.598;15.650;2023-05-25T02:15:43;98712.59;;;10.30;72.41
59194;BME280;44967;48.598;15.650;2023-05-25T02:18:08;98712.44;;;10.36;72.25
59194;BME280;44967;48.598;15.650;2023-05-25T02:20:35;98715.75;;;10.45;72.25
59194;BME280;44967;48.598;15.650;2023-05-25T02:23:01;98708.72;;;10.44;72.44
59194;BME280;44967;48.598;15.650;2023-05-25T02:25:27;98711.72;;;10.28;72.58
59194;BME280;44967;48.598;15.650;2023-05-25T02:27:53;98708.00;;;10.37;72.54
59194;BME280;44967;48.598;15.650;2023-05-25T02:30:18;98706.75;;;10.53;72.44
59194;BME280;44967;48.598;15.650;2023-05-25T02:32:45;98710.47;;;10.45;71.49
59194;BME280;44967;48.598;15.650;2023-05-25T02:35:10;98713.31;;;10.35;71.73
59194;BME280;44967;48.598;15.650;2023-05-25T02:37:36;98711.66;;;10.31;72.85
59194;BME280;44967;48.598;15.650;2023-05-25T02:40:02;98709.00;;;10.33;72.51
59194;BME280;44967;48.598;15.650;2023-05-25T02:42:29;98714.53;;;10.22;73.41
59194;BME280;44967;48.598;15.650;2023-05-25T02:44:57;98713.66;;;10.22;72.54
59194;BME280;44967;48.598;15.650;2023-05-25T02:47:23;98723.47;;;10.15;72.26
59194;BME280;44967;48.598;15.650;2023-05-25T02:49:49;98725.72;;;10.32;72.01
59194;BME280;44967;48.598;15.650;2023-05-25T02:52:15;98726.53;;;10.35;72.44
59194;BME280;44967;48.598;15.650;2023-05-25T02:54:41;98732.78;;;10.31;73.23
59194;BME280;44967;48.598;15.650;2023-05-25T02:57:06;98736.31;;;10.32;72.75
59194;BME280;44967;48.598;15.650;2023-05-25T02:59:32;98739.25;;;10.18;73.95
59194;BME280;44967;48.598;15.650;2023-05-25T03:01:58;98733.75;;;10.27;74.50
59194;BME280;44967;48.598;15.650;2023-05-25T03:04:24;98736.25;;;10.35;74.17
59194;BME280;44967;48.598;15.650;2023-05-25T03:06:50;98747.63;;;10.37;74.59
59194;BME280;44967;48.598;15.650;2023-05-25T03:09:16;98747.47;;;10.45;73.86
59194;BME280;44967;48.598;15.650;2023-05-25T03:11:42;98751.81;;;10.47;74.12
59194;BME280;44967;48.598;15.650;2023-05-25T03:14:09;98757.09;;;10.47;74.69
59194;BME280;44967;48.598;15.650;2023-05-25T03:16:35;98746.66;;;10.43;75.28
59194;BME280;44967;48.598;15.650;2023-05-25T03:19:04;98755.28;;;10.51;75.02
59194;BME280;44967;48.598;15.650;2023-05-25T03:21:30;98757.72;;;10.58;74.53
59194;BME280;44967;48.598;15.650;2023-05-25T03:23:57;98761.38;;;10.53;74.45
59194;BME280;44967;48.598;15.650;2023-05-25T03:26:24;98764.72;;;10.61;74.22
59194;BME280;44967;48.598;15.650;2023-05-25T03:28:51;98771.88;;;10.56;74.14
59194;BME280;44967;48.598;15.650;2023-05-25T03:31:17;98775.91;;;10.72;73.84
59194;BME280;44967;48.598;15.650;2023-05-25T03:33:43;98782.94;;;10.71;73.60
59194;BME280;44967;48.598;15.650;2023-05-25T03:36:09;98783.69;;;10.78;73.73
59194;BME280;44967;48.598;15.650;2023-05-25T03:38:35;98778.19;;;10.87;73.17
59194;BME280;44967;48.598;15.650;2023-05-25T03:41:02;98778.19;;;10.87;73.00
59194;BME280;44967;48.598;15.650;2023-05-25T03:43:27;98771.88;;;10.93;73.94
59194;BME280;44967;48.598;15.650;2023-05-25T03:45:53;98779.66;;;10.99;73.07
59194;BME280;44967;48.598;15.650;2023-05-25T03:48:19;98782.19;;;11.03;72.84
59194;BME280;44967;48.598;15.650;2023-05-25T03:50:44;98780.41;;;11.05;73.00
59194;BME280;44967;48.598;15.650;2023-05-25T03:53:10;98782.97;;;11.07;72.71
59194;BME280;44967;48.598;15.650;2023-05-25T03:55:36;98792.56;;;11.11;72.47
59194;BME280;44967;48.598;15.650;2023-05-25T03:58:01;98786.50;;;11.07;73.01
59194;BME280;44967;48.598;15.650;2023-05-25T04:00:27;98781.00;;;11.16;72.35
59194;BME280;44967;48.598;15.650;2023-05-25T04:02:53;98781.75;;;11.21;72.34
59194;BME280;44967;48.598;15.650;2023-05-25T04:05:19;98783.31;;;11.28;73.53
59194;BME280;44967;48.598;15.650;2023-05-25T04:07:45;98792.16;;;11.27;73.87
59194;BME280;44967;48.598;15.650;2023-05-25T04:10:10;98798.34;;;11.26;73.27
59194;BME280;44967;48.598;15.650;2023-05-25T04:12:36;98799.13;;;11.31;73.55
59194;BME280;44967;48.598;15.650;2023-05-25T04:15:02;98795.81;;;11.22;72.73
59194;BME280;44967;48.598;15.650;2023-05-25T04:17:30;98791.19;;;11.31;72.91
59194;BME280;44967;48.598;15.650;2023-05-25T04:19:55;98798.13;;;11.35;72.96
59194;BME280;44967;48.598;15.650;2023-05-25T04:22:21;98796.25;;;11.41;73.00
59194;BME280;44967;48.598;15.650;2023-05-25T04:24:47;98800.66;;;11.40;73.30
59194;BME280;44967;48.598;15.650;2023-05-25T04:27:13;98800.50;;;11.46;73.76
59194;BME280;44967;48.598;15.650;2023-05-25T04:29:39;98797.31;;;11.66;72.61
59194;BME280;44967;48.598;15.650;2023-05-25T04:32:06;98804.56;;;11.59;72.91
59194;BME280;44967;48.598;15.650;2023-05-25T04:34:34;98803.50;;;11.66;72.35
59194;BME280;44967;48.598;15.650;2023-05-25T04:37:00;98792.56;;;11.80;71.37
59194;BME280;44967;48.598;15.650;2023-05-25T04:39:30;98800.34;;;11.86;69.87
59194;BME280;44967;48.598;15.650;2023-05-25T04:41:57;98809.03;;;11.91;68.75
59194;BME280;44967;48.598;15.650;2023-05-25T04:44:22;98810.69;;;11.95;67.91
59194;BME280;44967;48.598;15.650;2023-05-25T04:46:50;98808.59;;;12.06;68.52
59194;BME280;44967;48.598;15.650;2023-05-25T04:49:16;98807.59;;;12.10;68.86
59194;BME280;44967;48.598;15.650;2023-05-25T04:51:43;98803.81;;;12.19;69.72
59194;BME280;44967;48.598;15.650;2023-05-25T04:54:08;98799.34;;;12.21;68.49
59194;BME280;44967;48.598;15.650;2023-05-25T04:56:35;98800.84;;;12.29;67.47
59194;BME280;44967;48.598;15.650;2023-05-25T04:59:00;98802.50;;;12.34;67.02
59194;BME280;44967;48.598;15.650;2023-05-25T05:01:26;98806.78;;;12.39;66.61
59194;BME280;44967;48.598;15.650;2023-05-25T05:03:56;98801.88;;;12.55;67.25
59194;BME280;44967;48.598;15.650;2023-05-25T05:06:22;98806.72;;;12.70;67.77
59194;BME280;44967;48.598;15.650;2023-05-25T05:08:50;98813.00;;;12.67;66.55
59194;BME280;44967;48.598;15.650;2023-05-25T05:11:16;98811.03;;;12.72;66.87
59194;BME280;44967;48.598;15.650;2023-05-25T05:13:41;98821.97;;;12.91;66.40
59194;BME280;44967;48.598;15.650;2023-05-25T05:16:07;98812.03;;;12.98;64.50
59194;BME280;44967;48.598;15.650;2023-05-25T05:18:33;98804.66;;;13.07;63.88
59194;BME280;44967;48.598;15.650;2023-05-25T05:20:58;98810.25;;;12.98;64.54
59194;BME280;44967;48.598;15.650;2023-05-25T05:23:25;98810.13;;;13.01;64.70
59194;BME280;44967;48.598;15.650;2023-05-25T05:25:51;98809.13;;;13.05;64.94
59194;BME280;44967;48.598;15.650;2023-05-25T05:28:16;98809.56;;;12.92;64.57
59194;BME280;44967;48.598;15.650;2023-05-25T05:30:42;98813.00;;;12.95;63.98
59194;BME280;44967;48.598;15.650;2023-05-25T05:33:10;98814.91;;;12.90;64.12
59194;BME280;44967;48.598;15.650;2023-05-25T05:35:36;98807.88;;;12.89;63.68
59194;BME280;44967;48.598;15.650;2023-05-25T05:38:02;98807.38;;;13.04;63.70
59194;BME280;44967;48.598;15.650;2023-05-25T05:40:27;98801.19;;;13.04;63.99
59194;BME280;44967;48.598;15.650;2023-05-25T05:42:53;98799.56;;;13.00;64.64
59194;BME280;44967;48.598;15.650;2023-05-25T05:45:19;98803.91;;;13.02;64.66
59194;BME280;44967;48.598;15.650;2023-05-25T05:47:44;98809.47;;;12.95;64.80
59194;BME280;44967;48.598;15.650;2023-05-25T05:50:13;98800.69;;;12.93;64.41
59194;BME280;44967;48.598;15.650;2023-05-25T05:52:39;98801.13;;;13.07;66.88
59194;BME280;44967;48.598;15.650;2023-05-25T05:55:05;98803.56;;;13.14;65.35
59194;BME280;44967;48.598;15.650;2023-05-25T05:57:31;98810.00;;;13.34;65.17
59194;BME280;44967;48.598;15.650;2023-05-25T05:59:57;98798.91;;;13.21;64.75
59194;BME280;44967;48.598;15.650;2023-05-25T06:02:22;98794.06;;;13.34;65.47
59194;BME280;44967;48.598;15.650;2023-05-25T06:04:48;98800.19;;;13.36;66.13
59194;BME280;44967;48.598;15.650;2023-05-25T06:07:14;98795.84;;;13.33;66.40
59194;BME280;44967;48.598;15.650;2023-05-25T06:09:40;98800.06;;;13.65;64.90
59194;BME280;44967;48.598;15.650;2023-05-25T06:12:06;98799.72;;;13.49;65.40
59194;BME280;44967;48.598;15.650;2023-05-25T06:14:32;98805.56;;;13.59;65.98
59194;BME280;44967;48.598;15.650;2023-05-25T06:16:57;98804.66;;;13.60;64.57
59194;BME280;44967;48.598;15.650;2023-05-25T06:19:24;98812.16;;;13.74;65.08
59194;BME280;44967;48.598;15.650;2023-05-25T06:21:50;98808.97;;;13.89;66.16
59194;BME280;44967;48.598;15.650;2023-05-25T06:24:16;98811.09;;;14.02;64.87
59194;BME280;44967;48.598;15.650;2023-05-25T06:26:41;98816.50;;;14.01;64.74
59194;BME280;44967;48.598;15.650;2023-05-25T06:29:07;98823.38;;;14.06;64.62
59194;BME280;44967;48.598;15.650;2023-05-25T06:31:33;98821.22;;;14.18;64.66
59194;BME280;44967;48.598;15.650;2023-05-25T06:33:59;98816.28;;;14.30;64.58
59194;BME280;44967;48.598;15.650;2023-05-25T06:36:24;98829.53;;;14.32;64.36
59194;BME280;44967;48.598;15.650;2023-05-25T06:38:50;98826.16;;;14.51;63.97
59194;BME280;44967;48.598;15.650;2023-05-25T06:41:16;98824.34;;;14.53;63.55
59194;BME280;44967;48.598;15.650;2023-05-25T06:43:43;98825.66;;;14.65;63.86
59194;BME280;44967;48.598;15.650;2023-05-25T06:46:09;98821.66;;;14.77;63.10
59194;BME280;44967;48.598;15.650;2023-05-25T06:48:42;98820.91;;;14.73;62.92
59194;BME280;44967;48.598;15.650;2023-05-25T06:51:08;98820.31;;;14.88;63.14
59194;BME280;44967;48.598;15.650;2023-05-25T06:53:33;98820.06;;;14.94;62.89
59194;BME280;44967;48.598;15.650;2023-05-25T06:55:59;98821.19;;;15.10;62.70
59194;BME280;44967;48.598;15.650;2023-05-25T06:58:25;98822.50;;;15.00;62.43
59194;BME280;44967;48.598;15.650;2023-05-25T07:00:51;98816.72;;;15.11;62.44
59194;BME280;44967;48.598;15.650;2023-05-25T07:03:17;98827.13;;;15.81;61.39
59194;BME280;44967;48.598;15.650;2023-05-25T07:05:43;98824.47;;;16.60;58.43
59194;BME280;44967;48.598;15.650;2023-05-25T07:08:08;98817.22;;;17.54;55.48
59194;BME280;44967;48.598;15.650;2023-05-25T07:10:34;98816.88;;;18.63;52.85
59194;BME280;44967;48.598;15.650;2023-05-25T07:13:00;98825.56;;;19.31;49.37
59194;BME280;44967;48.598;15.650;2023-05-25T07:15:25;98817.44;;;19.17;49.32
59194;BME280;44967;48.598;15.650;2023-05-25T07:17:51;98816.50;;;18.54;51.80
59194;BME280;44967;48.598;15.650;2023-05-25T07:20:17;98815.78;;;18.99;49.68
59194;BME280;44967;48.598;15.650;2023-05-25T07:22:45;98819.22;;;20.94;46.41
59194;BME280;44967;48.598;15.650;2023-05-25T07:25:11;98811.97;;;20.53;45.70
59194;BME280;44967;48.598;15.650;2023-05-25T07:27:37;98816.41;;;21.50;43.86
59194;BME280;44967;48.598;15.650;2023-05-25T07:30:04;98825.03;;;22.34;41.69
59194;BME280;44967;48.598;15.650;2023-05-25T07:32:30;98813.63;;;22.69;40.68
59194;BME280;44967;48.598;15.650;2023-05-25T07:34:56;98811.88;;;23.29;39.71
59194;BME280;44967;48.598;15.650;2023-05-25T07:37:22;98804.34;;;23.82;38.40
59194;BME280;44967;48.598;15.650;2023-05-25T07:39:48;98814.84;;;23.98;38.36
59194;BME280;44967;48.598;15.650;2023-05-25T07:42:15;98812.38;;;23.71;37.68
59194;BME280;44967;48.598;15.650;2023-05-25T07:44:48;98813.75;;;24.46;36.97
59194;BME280;44967;48.598;15.650;2023-05-25T07:47:14;98820.38;;;23.72;38.72
59194;BME280;44967;48.598;15.650;2023-05-25T07:49:40;98820.94;;;24.23;37.33
59194;BME280;44967;48.598;15.650;2023-05-25T07:52:06;98819.56;;;24.97;36.45
59194;BME280;44967;48.598;15.650;2023-05-25T07:54:32;98821.03;;;25.23;35.64
59194;BME280;44967;48.598;15.650;2023-05-25T07:56:57;98815.84;;;24.08;35.92
59194;BME280;44967;48.598;15.650;2023-05-25T07:59:24;98828.31;;;24.21;36.89
59194;BME280;44967;48.598;15.650;2023-05-25T08:01:50;98825.81;;;24.75;36.20
59194;BME280;44967;48.598;15.650;2023-05-25T08:04:16;98823.69;;;24.46;36.93
59194;BME280;44967;48.598;15.650;2023-05-25T08:06:43;98820.31;;;24.77;35.62
59194;BME280;44967;48.598;15.650;2023-05-25T08:09:09;98828.69;;;25.07;35.41
59194;BME280;44967;48.598;15.650;2023-05-25T08:11:34;98822.13;;;25.21;35.09
59194;BME280;44967;48.598;15.650;2023-05-25T08:14:00;98823.94;;;25.43;35.04
59194;BME280;44967;48.598;15.650;2023-05-25T08:16:26;98818.94;;;25.27;35.01
59194;BME280;44967;48.598;15.650;2023-05-25T08:18:51;98822.59;;;25.37;34.91
59194;BME280;44967;48.598;15.650;2023-05-25T08:21:17;98832.56;;;24.59;35.79
59194;BME280;44967;48.598;15.650;2023-05-25T08:23:42;98831.97;;;23.85;37.04
59194;BME280;44967;48.598;15.650;2023-05-25T08:26:09;98831.06;;;21.86;41.28
59194;BME280;44967;48.598;15.650;2023-05-25T08:28:36;98831.28;;;21.29;42.88
59194;BME280;44967;48.598;15.650;2023-05-25T08:31:02;98832.16;;;20.31;45.18
59194;BME280;44967;48.598;15.650;2023-05-25T08:33:29;98830.22;;;19.59;47.50
59194;BME280;44967;48.598;15.650;2023-05-25T08:35:55;98832.28;;;19.38;48.10
59194;BME280;44967;48.598;15.650;2023-05-25T08:38:21;98829.66;;;19.68;48.06
59194;BME280;44967;48.598;15.650;2023-05-25T08:41:16;98828.97;;;19.64;48.45
59194;BME280;44967;48.598;15.650;2023-05-25T08:43:44;98832.63;;;19.63;49.20
59194;BME280;44967;48.598;15.650;2023-05-25T08:46:10;98818.94;;;19.68;51.16
59194;BME280;44967;48.598;15.650;2023-05-25T08:48:37;98822.50;;;19.98;48.02
59194;BME280;44967;48.598;15.650;2023-05-25T08:51:07;98834.41;;;19.79;49.91
59194;BME280;44967;48.598;15.650;2023-05-25T08:53:38;98834.03;;;19.85;49.65
59194;BME280;44967;48.598;15.650;2023-05-25T08:56:18;98826.81;;;20.15;48.58
59194;BME280;44967;48.598;15.650;2023-05-25T08:58:49;98842.50;;;19.93;50.59
59194;BME280;44967;48.598;15.650;2023-05-25T09:01:19;98834.91;;;19.55;49.44
59194;BME280;44967;48.598;15.650;2023-05-25T09:03:46;98835.41;;;19.15;50.43
59194;BME280;44967;48.598;15.650;2023-05-25T09:06:16;98832.75;;;19.15;49.76
59194;BME280;44967;48.598;15.650;2023-05-25T09:08:43;98824.53;;;19.49;48.78
59194;BME280;44967;48.598;15.650;2023-05-25T09:11:10;98834.72;;;18.96;50.71
59194;BME280;44967;48.598;15.650;2023-05-25T09:13:37;98838.94;;;18.51;50.59
59194;BME280;44967;48.598;15.650;2023-05-25T09:16:03;98836.75;;;18.75;50.21
59194;BME280;44967;48.598;15.650;2023-05-25T09:18:29;98837.44;;;18.63;50.67
59194;BME280;44967;48.598;15.650;2023-05-25T09:20:54;98837.84;;;18.55;50.77
59194;BME280;44967;48.598;15.650;2023-05-25T09:23:20;98836.41;;;18.81;51.33
59194;BME280;44967;48.598;15.650;2023-05-25T09:25:47;98836.00;;;19.04;50.02
59194;BME280;44967;48.598;15.650;2023-05-25T09:28:12;98827.41;;;19.76;49.40
59194;BME280;44967;48.598;15.650;2023-05-25T09:30:38;98822.03;;;20.64;47.20
59194;BME280;44967;48.598;15.650;2023-05-25T09:33:14;98826.22;;;20.82;45.02
59194;BME280;44967;48.598;15.650;2023-05-25T09:35:43;98831.38;;;21.54;44.64
59194;BME280;44967;48.598;15.650;2023-05-25T09:38:09;98828.91;;;22.30;42.64
59194;BME280;44967;48.598;15.650;2023-05-25T09:40:37;98823.22;;;22.73;42.39
59194;BME280;44967;48.598;15.650;2023-05-25T09:43:03;98819.03;;;22.69;41.51
59194;BME280;44967;48.598;15.650;2023-05-25T09:45:29;98823.59;;;23.05;41.97
59194;BME280;44967;48.598;15.650;2023-05-25T09:47:57;98821.28;;;22.75;39.99
59194;BME280;44967;48.598;15.650;2023-05-25T09:50:27;98829.44;;;22.98;41.34
59194;BME280;44967;48.598;15.650;2023-05-25T09:52:57;98831.75;;;22.79;40.56
59194;BME280;44967;48.598;15.650;2023-05-25T09:55:26;98827.66;;;21.16;45.25
59194;BME280;44967;48.598;15.650;2023-05-25T09:57:53;98823.66;;;20.66;45.08
59194;BME280;44967;48.598;15.650;2023-05-25T10:00:21;98818.22;;;20.10;45.27
59194;BME280;44967;48.598;15.650;2023-05-25T10:02:48;98823.00;;;20.05;46.35
59194;BME280;44967;48.598;15.650;2023-05-25T10:05:15;98823.84;;;20.05;47.20
59194;BME280;44967;48.598;15.650;2023-05-25T10:07:43;98822.59;;;20.11;47.89
59194;BME280;44967;48.598;15.650;2023-05-25T10:10:09;98833.56;;;19.78;47.73
59194;BME280;44967;48.598;15.650;2023-05-25T10:12:40;98821.53;;;19.99;47.73
59194;BME280;44967;48.598;15.650;2023-05-25T10:15:07;98815.81;;;20.19;47.74
59194;BME280;44967;48.598;15.650;2023-05-25T10:17:34;98813.19;;;20.76;46.98
59194;BME280;44967;48.598;15.650;2023-05-25T10:20:04;98799.44;;;21.09;44.15
59194;BME280;44967;48.598;15.650;2023-05-25T10:23:07;98805.16;;;21.58;44.91
59194;BME280;44967;48.598;15.650;2023-05-25T10:28:30;98804.69;;;20.41;46.27
59194;BME280;44967;48.598;15.650;2023-05-25T10:31:00;98804.94;;;20.51;48.23
59194;BME280;44967;48.598;15.650;2023-05-25T10:33:26;98799.84;;;20.75;47.86
59194;BME280;44967;48.598;15.650;2023-05-25T10:35:53;98802.16;;;20.81;45.01
59194;BME280;44967;48.598;15.650;2023-05-25T10:38:20;98788.75;;;21.22;44.78
59194;BME280;44967;48.598;15.650;2023-05-25T10:40:48;98797.81;;;21.47;44.62
59194;BME280;44967;48.598;15.650;2023-05-25T10:43:19;98797.47;;;21.79;45.26
59194;BME280;44967;48.598;15.650;2023-05-25T10:45:46;98792.50;;;21.19;45.10
59194;BME280;44967;48.598;15.650;2023-05-25T10:48:15;98796.84;;;21.48;44.00
59194;BME280;44967;48.598;15.650;2023-05-25T10:50:41;98792.59;;;21.71;43.25
59194;BME280;44967;48.598;15.650;2023-05-25T10:53:07;98794.91;;;21.90;44.03
59194;BME280;44967;48.598;15.650;2023-05-25T10:58:22;98789.50;;;21.90;43.35
59194;BME280;44967;48.598;15.650;2023-05-25T11:01:01;98782.69;;;21.98;43.17
59194;BME280;44967;48.598;15.650;2023-05-25T11:06:08;98776.00;;;22.54;42.47
59194;BME280;44967;48.598;15.650;2023-05-25T11:11:16;98767.72;;;22.70;41.84
59194;BME280;44967;48.598;15.650;2023-05-25T11:13:50;98767.38;;;22.49;42.94
59194;BME280;44967;48.598;15.650;2023-05-25T11:18:55;98775.78;;;21.94;43.10
59194;BME280;44967;48.598;15.650;2023-05-25T11:23:52;98756.09;;;22.06;42.95
59194;BME280;44967;48.598;15.650;2023-05-25T11:26:20;98752.31;;;22.22;43.00
59194;BME280;44967;48.598;15.650;2023-05-25T11:28:47;98752.31;;;22.47;42.39
59194;BME280;44967;48.598;15.650;2023-05-25T11:31:13;98737.50;;;22.90;40.67
59194;BME280;44967;48.598;15.650;2023-05-25T11:33:39;98740.69;;;22.34;41.18
59194;BME280;44967;48.598;15.650;2023-05-25T11:36:09;98742.00;;;22.16;41.43
59194;BME280;44967;48.598;15.650;2023-05-25T11:38:41;98731.00;;;22.06;42.87
59194;BME280;44967;48.598;15.650;2023-05-25T11:41:22;98733.69;;;22.19;42.69
59194;BME280;44967;48.598;15.650;2023-05-25T11:43:49;98734.13;;;22.25;42.42
59194;BME280;44967;48.598;15.650;2023-05-25T11:46:17;98738.31;;;22.42;43.16
59194;BME280;44967;48.598;15.650;2023-05-25T11:48:50;98737.44;;;22.54;42.48
59194;BME280;44967;48.598;15.650;2023-05-25T11:51:18;98731.72;;;22.71;41.73
59194;BME280;44967;48.598;15.650;2023-05-25T11:53:44;98724.03;;;22.65;42.88
59194;BME280;44967;48.598;15.650;2023-05-25T11:56:12;98728.41;;;22.04;43.18
59194;BME280;44967;48.598;15.650;2023-05-25T11:58:39;98723.78;;;22.19;42.44
59194;BME280;44967;48.598;15.650;2023-05-25T12:01:20;98731.25;;;22.65;43.73
59194;BME280;44967;48.598;15.650;2023-05-25T12:03:51;98721.28;;;22.54;44.48
59194;BME280;44967;48.598;15.650;2023-05-25T12:06:31;98720.88;;;22.35;41.69
59194;BME280;44967;48.598;15.650;2023-05-25T12:09:10;98710.97;;;22.35;42.81
59194;BME280;44967;48.598;15.650;2023-05-25T12:11:36;98707.34;;;22.73;43.75
59194;BME280;44967;48.598;15.650;2023-05-25T12:14:05;98710.66;;;22.27;41.43
59194;BME280;44967;48.598;15.650;2023-05-25T12:16:32;98713.63;;;22.48;42.40
59194;BME280;44967;48.598;15.650;2023-05-25T12:18:59;98705.59;;;23.08;41.00
59194;BME280;44967;48.598;15.650;2023-05-25T12:21:26;98702.72;;;22.62;42.14
59194;BME280;44967;48.598;15.650;2023-05-25T12:23:53;98711.59;;;22.39;43.56
59194;BME280;44967;48.598;15.650;2023-05-25T12:26:19;98708.97;;;22.63;43.15
59194;BME280;44967;48.598;15.650;2023-05-25T12:29:05;98709.28;;;23.07;41.20
59194;BME280;44967;48.598;15.650;2023-05-25T12:31:32;98708.09;;;22.62;40.86
59194;BME280;44967;48.598;15.650;2023-05-25T12:34:14;98702.75;;;22.98;41.62
59194;BME280;44967;48.598;15.650;2023-05-25T12:36:50;98700.53;;;22.80;41.58
59194;BME280;44967;48.598;15.650;2023-05-25T12:41:57;98697.53;;;22.72;42.35
59194;BME280;44967;48.598;15.650;2023-05-25T12:44:28;98702.59;;;22.76;42.64
59194;BME280;44967;48.598;15.650;2023-05-25T12:47:15;98693.53;;;22.65;43.80
59194;BME280;44967;48.598;15.650;2023-05-25T12:49:45;98692.00;;;22.86;40.90
59194;BME280;44967;48.598;15.650;2023-05-25T12:54:57;98698.13;;;22.88;42.45
59194;BME280;44967;48.598;15.650;2023-05-25T12:57:33;98689.38;;;22.48;41.44
59194;BME280;44967;48.598;15.650;2023-05-25T12:59:59;98683.03;;;22.36;42.83
59194;BME280;44967;48.598;15.650;2023-05-25T13:02:25;98690.91;;;22.39;42.64
59194;BME280;44967;48.598;15.650;2023-05-25T13:04:51;98687.00;;;22.69;42.95
59194;BME280;44967;48.598;15.650;2023-05-25T13:07:17;98687.84;;;22.69;43.37
59194;BME280;44967;48.598;15.650;2023-05-25T13:09:43;98681.22;;;22.37;42.71
59194;BME280;44967;48.598;15.650;2023-05-25T13:12:08;98684.47;;;22.17;43.66
59194;BME280;44967;48.598;15.650;2023-05-25T13:14:34;98677.16;;;22.06;45.19
59194;BME280;44967;48.598;15.650;2023-05-25T13:17:00;98676.63;;;22.63;44.20